createdAt,value
2019-02-15T00:02:10.231Z,4.77
2019-02-15T00:04:40.163Z,3.25
2019-02-15T00:07:10.211Z,3.67
2019-02-15T00:09:40.108Z,4.23
2019-02-15T00:12:10.149Z,5.10
2019-02-15T00:14:47.093Z,5.07
2019-02-15T00:17:26.686Z,3.07
2019-02-15T00:19:57.088Z,2.83
2019-02-15T00:22:26.910Z,3.40
2019-02-15T00:24:56.792Z,4.45
2019-02-15T00:27:26.599Z,2.80
2019-02-15T00:29:56.353Z,2.97
2019-02-15T00:32:26.238Z,3.93
2019-02-15T00:34:56.616Z,4.67
2019-02-15T00:37:26.577Z,2.80
2019-02-15T00:39:56.310Z,2.37
2019-02-15T00:42:26.647Z,5.40
2019-02-15T00:44:56.675Z,3.80
2019-02-15T00:47:39.694Z,3.67
2019-02-15T00:50:40.890Z,4.17
2019-02-15T00:53:29.904Z,2.52
2019-02-15T00:56:20.385Z,2.60
2019-02-15T00:59:12.314Z,2.07
2019-02-15T01:02:10.356Z,2.60
2019-02-15T01:05:02.130Z,1.98
2019-02-15T01:07:54.210Z,2.22
2019-02-15T01:10:49.285Z,2.40
2019-02-15T01:13:21.696Z,2.47
2019-02-15T01:15:51.582Z,2.95
2019-02-15T01:18:21.538Z,2.93
2019-02-15T01:20:51.241Z,3.03
2019-02-15T01:23:22.125Z,3.53
2019-02-15T01:26:14.035Z,2.60
2019-02-15T01:28:52.932Z,3.00
2019-02-15T01:31:50.567Z,1.93
2019-02-15T01:34:42.496Z,3.10
2019-02-15T01:37:43.921Z,2.77
2019-02-15T01:40:21.132Z,3.02
2019-02-15T01:43:00.702Z,2.90
2019-02-15T01:45:45.907Z,3.03
2019-02-15T01:48:16.108Z,2.77
2019-02-15T01:50:46.144Z,3.00
2019-02-15T01:53:16.034Z,4.00
2019-02-15T01:55:45.893Z,2.90
2019-02-15T01:58:15.905Z,2.17
2019-02-15T02:00:45.918Z,1.90
2019-02-15T02:03:15.877Z,2.70
2019-02-15T02:05:45.781Z,2.00
2019-02-15T02:08:19.140Z,1.97
2019-02-15T02:10:49.159Z,2.93
2019-02-15T02:13:19.011Z,1.67
2019-02-15T02:15:48.957Z,3.07
2019-02-15T02:18:18.831Z,2.87
2019-02-15T02:20:48.720Z,1.43
2019-02-15T02:23:18.601Z,2.37
2019-02-15T02:25:48.538Z,3.08
2019-02-15T02:28:19.521Z,3.47
2019-02-15T02:30:49.388Z,2.98
2019-02-15T02:33:19.201Z,4.87
2019-02-15T02:35:49.117Z,4.23
2019-02-15T02:38:19.039Z,4.63
2019-02-15T02:40:48.998Z,2.37
2019-02-15T02:43:19.061Z,2.03
2019-02-15T02:45:48.782Z,2.03
2019-02-15T02:48:18.808Z,2.60
2019-02-15T02:50:48.641Z,2.80
2019-02-15T02:53:18.587Z,2.77
2019-02-15T02:55:48.525Z,2.80
2019-02-15T02:58:18.496Z,2.37
2019-02-15T03:00:48.247Z,1.87
2019-02-15T03:03:19.093Z,2.67
2019-02-15T03:05:49.017Z,1.90
2019-02-15T03:08:18.909Z,1.72
2019-02-15T03:10:48.837Z,2.47
2019-02-15T03:13:18.814Z,2.67
2019-02-15T03:15:48.653Z,2.40
2019-02-15T03:18:18.492Z,1.93
2019-02-15T03:20:48.336Z,2.50
2019-02-15T03:23:18.022Z,3.37
2019-02-15T03:25:47.910Z,1.83
2019-02-15T03:28:17.723Z,1.97
2019-02-15T03:30:47.650Z,1.53
2019-02-15T03:33:17.483Z,3.13
2019-02-15T03:35:56.423Z,1.13
2019-02-15T03:38:40.172Z,2.33
2019-02-15T03:41:26.141Z,3.15
2019-02-15T03:43:56.388Z,2.90
2019-02-15T03:46:26.417Z,3.20
2019-02-15T03:48:56.692Z,2.00
2019-02-15T03:51:26.538Z,1.93
2019-02-15T03:53:56.325Z,2.80
2019-02-15T03:56:26.224Z,1.30
2019-02-15T03:58:56.289Z,2.23
2019-02-15T04:01:26.214Z,2.20
2019-02-15T04:03:56.104Z,2.27
2019-02-15T04:06:25.995Z,1.53
2019-02-15T04:08:55.760Z,3.63
2019-02-15T04:11:25.603Z,3.03
2019-02-15T04:13:55.449Z,1.87
2019-02-15T04:16:25.685Z,1.37
2019-02-15T04:18:55.764Z,2.57
2019-02-15T04:21:25.782Z,1.60
2019-02-15T04:23:55.637Z,2.10
2019-02-15T04:26:25.494Z,2.90
2019-02-15T04:28:55.526Z,2.27
2019-02-15T04:31:25.462Z,1.47
2019-02-15T04:33:55.340Z,2.83
2019-02-15T04:36:25.290Z,3.27
2019-02-15T04:38:55.200Z,2.10
2019-02-15T04:41:25.085Z,2.57
2019-02-15T04:43:55.023Z,1.77
2019-02-15T04:46:24.869Z,2.17
2019-02-15T04:48:54.804Z,5.97
2019-02-15T04:51:24.747Z,3.87
2019-02-15T04:53:54.640Z,3.08
2019-02-15T04:56:24.543Z,3.60
2019-02-15T04:58:54.589Z,4.10
2019-02-15T05:01:26.911Z,3.40
2019-02-15T05:03:57.840Z,4.20
2019-02-15T05:06:27.775Z,6.10
2019-02-15T05:08:57.700Z,3.87
2019-02-15T05:11:27.590Z,4.80
2019-02-15T05:13:57.425Z,4.43
2019-02-15T05:16:27.568Z,4.27
2019-02-15T05:18:57.462Z,5.03
2019-02-15T05:21:27.683Z,4.97
2019-02-15T05:23:57.516Z,7.23
2019-02-15T05:26:27.432Z,3.55
2019-02-15T05:28:57.189Z,3.70
2019-02-15T05:31:27.185Z,2.72
2019-02-15T05:33:57.195Z,3.15
2019-02-15T05:36:28.165Z,2.83
2019-02-15T05:38:58.078Z,3.60
2019-02-15T05:41:27.944Z,3.50
2019-02-15T05:43:57.824Z,4.43
2019-02-15T05:46:27.615Z,2.60
2019-02-15T05:48:57.530Z,7.63
2019-02-15T05:51:27.333Z,32.37
2019-02-15T05:53:57.324Z,31.77
2019-02-15T05:56:27.259Z,22.30
2019-02-15T05:58:57.235Z,9.08
2019-02-15T06:01:28.240Z,5.83
2019-02-15T06:03:58.327Z,6.37
2019-02-15T06:06:28.127Z,6.07
2019-02-15T06:08:58.663Z,5.42
2019-02-15T06:11:28.672Z,3.93
2019-02-15T06:13:58.841Z,5.85
2019-02-15T06:16:28.613Z,3.83
2019-02-15T06:18:58.623Z,4.97
2019-02-15T06:21:28.667Z,7.47
2019-02-15T06:23:58.616Z,4.10
2019-02-15T06:26:28.563Z,7.80
2019-02-15T06:28:58.853Z,5.13
2019-02-15T06:31:29.175Z,4.62
2019-02-15T06:33:58.970Z,4.17
2019-02-15T06:36:33.349Z,3.47
2019-02-15T06:39:04.507Z,5.57
2019-02-15T06:41:34.435Z,5.97
2019-02-15T06:44:04.302Z,5.03
2019-02-15T06:46:34.185Z,7.45
2019-02-15T06:49:04.204Z,4.50
2019-02-15T06:51:34.958Z,3.03
2019-02-15T06:54:04.833Z,7.33
2019-02-15T06:56:34.841Z,7.27
2019-02-15T06:59:33.555Z,9.33
2019-02-15T07:02:14.827Z,8.20
2019-02-15T07:05:04.301Z,4.42
2019-02-15T07:07:34.237Z,5.17
2019-02-15T07:10:04.391Z,8.00
2019-02-15T07:12:34.317Z,5.50
2019-02-15T07:15:04.640Z,5.83
2019-02-15T07:17:34.794Z,4.97
2019-02-15T07:20:05.675Z,7.37
2019-02-15T07:22:35.616Z,7.93
2019-02-15T07:25:06.524Z,8.50
2019-02-15T07:27:36.632Z,9.70
2019-02-15T07:30:07.634Z,10.73
2019-02-15T07:32:39.545Z,17.67
2019-02-15T07:35:10.682Z,11.30
2019-02-15T07:37:41.291Z,13.00
2019-02-15T07:40:12.742Z,11.33
2019-02-15T07:42:42.935Z,7.90
2019-02-15T07:45:12.801Z,11.60
2019-02-15T07:47:48.207Z,6.30
2019-02-15T07:50:18.168Z,8.70
2019-02-15T07:52:48.255Z,6.07
2019-02-15T07:55:18.194Z,6.90
2019-02-15T07:57:48.060Z,6.13
2019-02-15T08:00:17.965Z,4.93
2019-02-15T08:02:48.090Z,3.50
2019-02-15T08:05:18.479Z,2.50
2019-02-15T08:07:48.733Z,8.23
2019-02-15T08:10:18.646Z,7.43
2019-02-15T08:12:49.092Z,7.20
2019-02-15T08:15:19.589Z,6.77
2019-02-15T08:17:50.180Z,6.37
2019-02-15T08:20:20.562Z,4.72
2019-02-15T08:22:50.690Z,4.00
2019-02-15T08:25:20.860Z,4.65
2019-02-15T08:27:51.119Z,3.87
2019-02-15T08:30:22.185Z,5.45
2019-02-15T08:32:52.104Z,7.07
2019-02-15T08:35:23.194Z,2.92
2019-02-15T08:37:53.524Z,2.10
2019-02-15T08:40:23.842Z,2.12
2019-02-15T08:42:58.965Z,3.90
2019-02-15T08:45:29.728Z,4.35
2019-02-15T08:48:00.637Z,3.10
2019-02-15T08:50:30.358Z,2.95
2019-02-15T08:53:00.181Z,3.30
2019-02-15T08:55:30.966Z,3.58
2019-02-15T08:58:00.809Z,2.73
2019-02-15T09:00:30.707Z,3.22
2019-02-15T09:03:00.628Z,3.27
2019-02-15T09:05:30.551Z,2.17
2019-02-15T09:08:00.368Z,1.50
2019-02-15T09:10:30.410Z,1.05
2019-02-15T09:13:00.364Z,1.27
2019-02-15T09:15:30.129Z,1.17
2019-02-15T09:18:00.661Z,2.02
2019-02-15T09:20:30.439Z,1.10
2019-02-15T09:23:00.359Z,1.30
2019-02-15T09:25:30.149Z,1.10
2019-02-15T09:28:19.055Z,1.55
2019-02-15T09:30:53.824Z,1.17
2019-02-15T09:33:23.801Z,3.75
2019-02-15T09:35:53.713Z,0.75
2019-02-15T09:38:23.642Z,1.17
2019-02-15T09:40:53.656Z,1.92
2019-02-15T09:43:23.384Z,6.17
2019-02-15T09:45:53.204Z,1.10
2019-02-15T09:48:22.974Z,1.57
2019-02-15T09:50:52.861Z,1.02
2019-02-15T09:53:28.017Z,1.62
2019-02-15T09:55:58.012Z,2.40
2019-02-15T09:58:28.772Z,1.40
2019-02-15T10:00:58.722Z,1.70
2019-02-15T10:03:28.466Z,1.12
2019-02-15T10:05:58.365Z,2.70
2019-02-15T10:08:29.096Z,1.05
2019-02-15T10:10:59.035Z,1.03
2019-02-15T10:13:28.765Z,1.77
2019-02-15T10:15:58.686Z,2.33
2019-02-15T10:18:28.568Z,2.10
2019-02-15T10:20:58.864Z,1.46
2019-02-15T10:23:28.699Z,1.05
2019-02-15T10:25:58.499Z,1.32
2019-02-15T10:28:28.299Z,1.25
2019-02-15T10:30:58.081Z,1.35
2019-02-15T10:33:28.347Z,3.15
2019-02-15T10:35:58.241Z,1.32
2019-02-15T10:38:28.345Z,2.30
2019-02-15T10:40:58.146Z,1.20
2019-02-15T10:43:28.142Z,2.65
2019-02-15T10:45:57.902Z,2.70
2019-02-15T10:48:27.750Z,1.67
2019-02-15T10:50:57.600Z,1.57
2019-02-15T10:53:27.605Z,1.70
2019-02-15T10:55:57.551Z,1.20
2019-02-15T10:58:28.549Z,2.05
2019-02-15T11:00:58.399Z,2.30
2019-02-15T11:03:28.500Z,2.62
2019-02-15T11:05:59.259Z,1.57
2019-02-15T11:08:29.489Z,2.60
2019-02-15T11:10:59.460Z,1.23
2019-02-15T11:13:29.479Z,3.03
2019-02-15T11:15:59.364Z,1.27
2019-02-15T11:18:29.112Z,1.60
2019-02-15T11:20:58.934Z,0.67
2019-02-15T11:23:28.951Z,1.40
2019-02-15T11:25:59.717Z,1.90
2019-02-15T11:28:29.651Z,2.00
2019-02-15T11:30:59.422Z,1.30
2019-02-15T11:33:29.210Z,2.00
2019-02-15T11:35:59.101Z,2.87
2019-02-15T11:38:28.890Z,1.25
2019-02-15T11:40:59.683Z,1.47
2019-02-15T11:43:29.487Z,1.10
2019-02-15T11:45:59.353Z,0.97
2019-02-15T11:48:29.540Z,0.90
2019-02-15T11:50:59.536Z,1.80
2019-02-15T11:53:29.497Z,2.47
2019-02-15T11:55:59.472Z,1.10
2019-02-15T11:58:30.195Z,3.30
2019-02-15T12:00:59.976Z,2.70
2019-02-15T12:03:29.904Z,1.57
2019-02-15T12:05:59.837Z,2.30
2019-02-15T12:08:29.742Z,1.30
2019-02-15T12:10:59.685Z,1.07
2019-02-15T12:13:29.645Z,1.20
2019-02-15T12:15:59.459Z,0.60
2019-02-15T12:18:29.368Z,2.07
2019-02-15T12:20:59.160Z,1.37
2019-02-15T12:23:29.158Z,0.60
2019-02-15T12:25:58.908Z,1.13
2019-02-15T12:28:30.628Z,1.27
2019-02-15T12:31:00.334Z,0.83
2019-02-15T12:33:30.201Z,0.87
2019-02-15T12:36:00.757Z,0.80
2019-02-15T12:38:30.496Z,1.80
2019-02-15T12:41:00.340Z,1.10
2019-02-15T12:43:30.281Z,1.03
2019-02-15T12:46:00.244Z,2.50
2019-02-15T12:48:30.048Z,0.93
2019-02-15T12:50:59.907Z,2.10
2019-02-15T12:53:29.983Z,1.60
2019-02-15T12:55:59.963Z,1.23
2019-02-15T12:58:29.946Z,2.77
2019-02-15T13:00:59.925Z,2.00
2019-02-15T13:03:30.256Z,2.60
2019-02-15T13:06:00.142Z,1.03
2019-02-15T13:08:31.213Z,1.30
2019-02-15T13:11:01.331Z,1.23
2019-02-15T13:13:31.300Z,0.80
2019-02-15T13:16:01.409Z,1.63
2019-02-15T13:18:31.296Z,0.77
2019-02-15T13:21:01.290Z,0.67
2019-02-15T13:23:31.448Z,1.93
2019-02-15T13:26:08.191Z,1.10
2019-02-15T13:28:32.814Z,0.87
2019-02-15T13:31:02.620Z,3.42
2019-02-15T13:33:32.450Z,2.37
2019-02-15T13:36:02.279Z,1.03
2019-02-15T13:38:32.229Z,1.20
2019-02-15T13:41:02.077Z,0.70
2019-02-15T13:43:32.362Z,1.83
2019-02-15T13:46:02.709Z,1.47
2019-02-15T13:48:32.532Z,0.93
2019-02-15T13:51:02.293Z,0.80
2019-02-15T13:53:34.699Z,2.47
2019-02-15T13:56:04.534Z,0.53
2019-02-15T13:58:34.323Z,1.00
2019-02-15T14:01:04.290Z,1.70
2019-02-15T14:03:34.040Z,1.30
2019-02-15T14:06:04.258Z,0.73
2019-02-15T14:08:34.010Z,0.63
2019-02-15T14:11:04.229Z,1.23
2019-02-15T14:13:34.288Z,1.10
2019-02-15T14:16:04.134Z,0.93
2019-02-15T14:18:34.535Z,1.20
2019-02-15T14:21:04.353Z,0.70
2019-02-15T14:23:34.249Z,1.13
2019-02-15T14:26:04.064Z,2.33
2019-02-15T14:28:34.007Z,1.97
2019-02-15T14:31:03.949Z,1.10
2019-02-15T14:33:33.935Z,2.13
2019-02-15T14:36:03.846Z,1.90
2019-02-15T14:38:33.747Z,2.10
2019-02-15T14:41:03.717Z,0.80
2019-02-15T14:43:33.480Z,1.87
2019-02-15T14:46:03.891Z,2.40
2019-02-15T14:48:33.820Z,2.30
2019-02-15T14:51:03.870Z,1.40
2019-02-15T14:53:33.742Z,1.70
2019-02-15T14:56:03.531Z,1.17
2019-02-15T14:58:33.413Z,0.70
2019-02-15T15:01:03.370Z,1.27
2019-02-15T15:03:34.325Z,1.77
2019-02-15T15:06:04.124Z,0.80
2019-02-15T15:08:33.871Z,0.97
2019-02-15T15:11:03.854Z,3.20
2019-02-15T15:13:33.789Z,1.07
2019-02-15T15:16:03.649Z,3.87
2019-02-15T15:18:33.821Z,2.25
2019-02-15T15:21:03.752Z,0.90
2019-02-15T15:23:34.004Z,1.17
2019-02-15T15:26:11.563Z,1.67
2019-02-15T15:28:35.846Z,0.57
2019-02-15T15:31:05.573Z,1.43
2019-02-15T15:33:35.689Z,0.63
2019-02-15T15:36:05.567Z,0.70
2019-02-15T15:38:35.769Z,0.73
2019-02-15T15:41:05.614Z,0.90
2019-02-15T15:43:35.595Z,2.33
2019-02-15T15:46:05.520Z,1.70
2019-02-15T15:48:35.339Z,3.37
2019-02-15T15:51:14.281Z,1.40
2019-02-15T15:53:44.872Z,1.57
2019-02-15T15:56:14.957Z,0.97
2019-02-15T15:58:47.419Z,1.67
2019-02-15T16:01:17.458Z,1.77
2019-02-15T16:03:47.675Z,1.03
2019-02-15T16:06:24.296Z,1.65
2019-02-15T16:08:49.509Z,1.50
2019-02-15T16:11:21.605Z,1.60
2019-02-15T16:13:53.893Z,3.40
2019-02-15T16:16:24.462Z,1.67
2019-02-15T16:18:54.213Z,1.20
2019-02-15T16:21:24.201Z,1.63
2019-02-15T16:23:54.309Z,2.00
2019-02-15T16:26:24.406Z,2.33
2019-02-15T16:28:54.373Z,3.47
2019-02-15T16:31:24.451Z,1.80
2019-02-15T16:33:54.550Z,1.27
2019-02-15T16:36:24.962Z,3.50
2019-02-15T16:38:55.984Z,2.47
2019-02-15T16:41:28.938Z,0.97
2019-02-15T16:43:59.693Z,1.42
2019-02-15T16:46:29.553Z,2.20
2019-02-15T16:48:59.377Z,1.97
2019-02-15T16:51:29.275Z,3.27
2019-02-15T16:53:59.673Z,1.50
2019-02-15T16:56:32.116Z,2.90
2019-02-15T16:59:02.077Z,2.67
2019-02-15T17:01:32.102Z,4.37
2019-02-15T17:04:06.954Z,6.63
2019-02-15T17:06:38.168Z,3.40
2019-02-15T17:09:16.789Z,4.23
2019-02-15T17:11:47.296Z,2.70
2019-02-15T17:14:21.656Z,6.08
2019-02-15T17:16:56.053Z,5.20
2019-02-15T17:19:25.858Z,4.13
2019-02-15T17:21:57.836Z,4.10
2019-02-15T17:24:31.477Z,3.30
2019-02-15T17:27:01.708Z,5.57
2019-02-15T17:29:32.272Z,2.90
2019-02-15T17:32:02.264Z,4.20
2019-02-15T17:34:35.308Z,6.23
2019-02-15T17:37:07.380Z,5.03
2019-02-15T17:39:37.564Z,6.73
2019-02-15T17:42:07.508Z,3.57
2019-02-15T17:44:39.349Z,3.93
2019-02-15T17:47:09.304Z,3.57
2019-02-15T17:49:39.121Z,8.30
2019-02-15T17:52:09.576Z,5.27
2019-02-15T17:54:39.466Z,5.07
2019-02-15T17:57:09.566Z,4.93
2019-02-15T17:59:40.219Z,3.63
2019-02-15T18:02:11.537Z,5.90
2019-02-15T18:04:42.546Z,3.50
2019-02-15T18:07:12.471Z,7.62
2019-02-15T18:09:42.547Z,4.73
2019-02-15T18:12:12.454Z,4.67
2019-02-15T18:14:42.431Z,4.17
2019-02-15T18:17:12.882Z,5.53
2019-02-15T18:19:47.276Z,4.83
2019-02-15T18:22:16.009Z,2.87
2019-02-15T18:24:45.949Z,3.43
2019-02-15T18:27:15.950Z,3.47
2019-02-15T18:29:45.858Z,2.33
2019-02-15T18:32:15.764Z,3.20
2019-02-15T18:34:50.187Z,2.47
2019-02-15T18:37:20.380Z,3.33
2019-02-15T18:39:51.946Z,4.63
2019-02-15T18:42:25.749Z,4.10
2019-02-15T18:44:55.548Z,3.30
2019-02-15T18:47:25.445Z,2.17
2019-02-15T18:49:55.541Z,1.85
2019-02-15T18:52:25.860Z,3.57
2019-02-15T18:54:57.738Z,2.08
2019-02-15T18:57:28.683Z,1.97
2019-02-15T18:59:58.776Z,2.47
2019-02-15T19:02:28.730Z,3.40
2019-02-15T19:04:58.596Z,2.73
2019-02-15T19:07:28.693Z,3.83
2019-02-15T19:10:01.097Z,2.40
2019-02-15T19:12:30.964Z,2.43
2019-02-15T19:15:03.918Z,3.07
2019-02-15T19:17:36.849Z,2.87
2019-02-15T19:20:08.055Z,3.00
2019-02-15T19:22:38.170Z,2.63
2019-02-15T19:25:10.084Z,3.83
2019-02-15T19:27:42.682Z,2.23
2019-02-15T19:30:15.503Z,3.47
2019-02-15T19:32:45.571Z,3.40
2019-02-15T19:35:16.984Z,4.70
2019-02-15T19:37:47.153Z,2.40
2019-02-15T19:40:17.412Z,4.10
2019-02-15T19:42:49.045Z,2.63
2019-02-15T19:45:19.106Z,3.90
2019-02-15T19:47:49.236Z,2.40
2019-02-15T19:50:19.585Z,3.37
2019-02-15T19:52:49.740Z,2.77
2019-02-15T19:55:19.742Z,2.47
2019-02-15T19:57:49.941Z,4.92
2019-02-15T20:00:20.211Z,2.83
2019-02-15T20:02:53.217Z,1.70
2019-02-15T20:05:23.358Z,2.43
2019-02-15T20:07:53.720Z,2.62
2019-02-15T20:10:24.053Z,2.10
2019-02-15T20:12:55.012Z,2.00
2019-02-15T20:15:24.929Z,3.00
2019-02-15T20:17:54.746Z,3.22
2019-02-15T20:20:27.232Z,4.87
2019-02-15T20:22:57.376Z,2.30
2019-02-15T20:25:27.323Z,2.70
2019-02-15T20:27:57.208Z,2.57
2019-02-15T20:30:27.405Z,3.67
2019-02-15T20:32:57.478Z,4.00
2019-02-15T20:35:27.522Z,4.10
2019-02-15T20:37:57.385Z,4.60
2019-02-15T20:40:28.784Z,3.67
2019-02-15T20:42:59.072Z,1.70
2019-02-15T20:45:29.225Z,3.00
2019-02-15T20:47:59.206Z,1.97
2019-02-15T20:50:29.172Z,2.93
2019-02-15T20:52:58.919Z,5.10
2019-02-15T20:55:29.044Z,2.00
2019-02-15T20:57:58.983Z,3.30
2019-02-15T21:00:28.996Z,1.73
2019-02-15T21:02:59.383Z,2.53
2019-02-15T21:05:29.549Z,2.47
2019-02-15T21:07:59.614Z,3.33
2019-02-15T21:10:29.647Z,4.53
2019-02-15T21:12:59.620Z,3.13
2019-02-15T21:15:29.856Z,3.07
2019-02-15T21:18:03.005Z,4.12
2019-02-15T21:20:33.024Z,2.80
2019-02-15T21:23:03.087Z,2.63
2019-02-15T21:25:33.200Z,3.93
2019-02-15T21:28:03.511Z,4.97
2019-02-15T21:30:33.745Z,3.43
2019-02-15T21:33:03.921Z,2.90
2019-02-15T21:35:33.861Z,3.63
2019-02-15T21:38:04.025Z,3.23
2019-02-15T21:40:34.070Z,3.22
2019-02-15T21:43:15.942Z,2.73
2019-02-15T21:45:45.855Z,5.23
2019-02-15T21:48:15.952Z,3.27
2019-02-15T21:50:45.741Z,2.97
2019-02-15T21:53:15.608Z,3.00
2019-02-15T21:55:45.939Z,4.43
2019-02-15T21:58:15.983Z,6.03
2019-02-15T22:00:46.259Z,3.57
2019-02-15T22:03:16.887Z,4.30
2019-02-15T22:05:47.267Z,6.13
2019-02-15T22:08:17.498Z,5.70
2019-02-15T22:10:49.013Z,3.60
2019-02-15T22:13:20.172Z,5.47
2019-02-15T22:15:50.064Z,3.80
2019-02-15T22:18:20.288Z,4.00
2019-02-15T22:20:50.272Z,3.23
2019-02-15T22:23:23.212Z,3.83
2019-02-15T22:25:53.900Z,4.75
2019-02-15T22:28:23.823Z,5.17
2019-02-15T22:31:01.204Z,5.43
2019-02-15T22:33:31.918Z,5.03
2019-02-15T22:36:01.786Z,5.87
2019-02-15T22:38:31.614Z,4.07
2019-02-15T22:41:16.056Z,4.07
2019-02-15T22:43:46.868Z,3.33
2019-02-15T22:46:17.204Z,5.15
2019-02-15T22:48:47.330Z,4.63
2019-02-15T22:51:21.124Z,5.47
2019-02-15T22:53:51.672Z,4.03
2019-02-15T22:56:21.667Z,3.47
2019-02-15T22:58:54.926Z,3.90
2019-02-15T23:01:26.135Z,4.53
2019-02-15T23:03:57.553Z,4.08
2019-02-15T23:06:27.849Z,3.70
2019-02-15T23:08:58.711Z,4.63
2019-02-15T23:11:28.863Z,5.37
2019-02-15T23:13:59.131Z,4.43
2019-02-15T23:16:29.260Z,7.97
2019-02-15T23:18:59.472Z,4.40
2019-02-15T23:21:29.595Z,5.97
2019-02-15T23:24:00.932Z,6.60
2019-02-15T23:26:31.055Z,4.93
2019-02-15T23:29:02.386Z,4.03
2019-02-15T23:31:32.952Z,4.57
2019-02-15T23:34:02.808Z,4.58
2019-02-15T23:36:32.763Z,3.90
2019-02-15T23:39:03.453Z,6.17
2019-02-15T23:41:34.893Z,4.70
2019-02-15T23:44:05.088Z,5.40
2019-02-15T23:46:34.949Z,4.87
2019-02-15T23:49:04.936Z,5.40
2019-02-15T23:51:36.800Z,6.10
2019-02-15T23:54:06.704Z,5.73
2019-02-15T23:56:36.553Z,6.70
2019-02-15T23:59:06.466Z,5.00
